createdAt,value
2019-03-26T00:00:34.613Z,65.30
2019-03-26T00:03:03.103Z,65.50
2019-03-26T00:05:31.829Z,65.60
2019-03-26T00:08:00.236Z,65.60
2019-03-26T00:10:28.646Z,65.60
2019-03-26T00:12:57.131Z,65.70
2019-03-26T00:15:25.558Z,65.80
2019-03-26T00:17:53.968Z,65.80
2019-03-26T00:20:22.467Z,65.80
2019-03-26T00:22:50.888Z,65.70
2019-03-26T00:25:19.406Z,65.80
2019-03-26T00:27:47.895Z,66.00
2019-03-26T00:30:16.642Z,66.00
2019-03-26T00:32:45.103Z,66.20
2019-03-26T00:35:13.708Z,66.20
2019-03-26T00:37:42.116Z,66.20
2019-03-26T00:40:10.890Z,66.20
2019-03-26T00:42:39.298Z,66.20
2019-03-26T00:45:07.818Z,66.30
2019-03-26T00:47:36.243Z,66.40
2019-03-26T00:50:06.500Z,66.40
2019-03-26T00:52:34.973Z,66.40
2019-03-26T00:55:04.778Z,66.40
2019-03-26T00:57:33.499Z,66.60
2019-03-26T01:00:02.870Z,66.50
2019-03-26T01:02:31.291Z,66.40
2019-03-26T01:04:59.707Z,66.40
2019-03-26T01:07:28.123Z,66.40
2019-03-26T01:09:56.536Z,66.30
2019-03-26T01:12:25.085Z,66.30
2019-03-26T01:14:53.497Z,66.20
2019-03-26T01:17:21.920Z,66.20
2019-03-26T01:19:50.337Z,66.00
2019-03-26T01:22:18.774Z,65.90
2019-03-26T01:24:47.192Z,65.90
2019-03-26T01:27:15.622Z,65.80
2019-03-26T01:29:44.115Z,65.90
2019-03-26T01:32:12.593Z,65.90
2019-03-26T01:34:46.299Z,66.80
2019-03-26T01:37:11.221Z,66.00
2019-03-26T01:39:39.703Z,65.80
2019-03-26T01:42:08.165Z,65.80
2019-03-26T01:44:36.875Z,65.70
2019-03-26T01:47:05.315Z,65.80
2019-03-26T01:49:34.688Z,65.90
2019-03-26T01:52:03.145Z,66.00
2019-03-26T01:54:31.541Z,65.90
2019-03-26T01:56:59.985Z,65.90
2019-03-26T01:59:28.393Z,65.90
2019-03-26T02:01:56.941Z,66.00
2019-03-26T02:04:25.402Z,66.00
2019-03-26T02:06:53.831Z,66.10
2019-03-26T02:09:23.892Z,66.10
2019-03-26T02:11:52.333Z,66.20
2019-03-26T02:14:20.755Z,67.00
2019-03-26T02:16:49.203Z,66.00
2019-03-26T02:19:17.618Z,65.80
2019-03-26T02:21:46.332Z,65.80
2019-03-26T02:24:14.755Z,65.90
2019-03-26T02:26:43.171Z,65.70
2019-03-26T02:29:11.614Z,65.50
2019-03-26T02:31:40.034Z,65.40
2019-03-26T02:34:08.464Z,65.40
2019-03-26T02:36:36.909Z,65.20
2019-03-26T02:39:07.163Z,65.10
2019-03-26T02:41:37.821Z,65.00
2019-03-26T02:44:05.707Z,64.90
2019-03-26T02:46:34.173Z,64.80
2019-03-26T02:49:02.608Z,64.70
2019-03-26T02:51:31.071Z,63.80
2019-03-26T02:53:59.490Z,64.50
2019-03-26T02:56:27.933Z,64.40
2019-03-26T02:58:56.393Z,64.40
2019-03-26T03:01:25.292Z,64.30
2019-03-26T03:03:53.719Z,64.30
2019-03-26T03:06:22.159Z,64.20
2019-03-26T03:08:51.238Z,64.10
2019-03-26T03:11:19.818Z,63.90
2019-03-26T03:13:48.463Z,63.90
2019-03-26T03:16:16.891Z,63.80
2019-03-26T03:18:45.316Z,63.70
2019-03-26T03:21:13.721Z,63.70
2019-03-26T03:23:42.174Z,63.70
2019-03-26T03:26:11.505Z,63.80
2019-03-26T03:28:40.317Z,63.80
2019-03-26T03:31:08.835Z,63.80
2019-03-26T03:33:37.333Z,63.70
2019-03-26T03:36:05.795Z,63.70
2019-03-26T03:38:34.306Z,63.60
2019-03-26T03:41:02.812Z,63.70
2019-03-26T03:43:31.487Z,63.60
2019-03-26T03:46:00.182Z,63.70
2019-03-26T03:48:29.405Z,63.70
2019-03-26T03:50:59.349Z,63.70
2019-03-26T03:53:28.327Z,63.70
2019-03-26T03:55:58.615Z,63.80
2019-03-26T03:58:28.824Z,63.80
2019-03-26T04:00:57.325Z,63.90
2019-03-26T04:03:25.847Z,64.10
2019-03-26T04:06:08.183Z,64.10
2019-03-26T04:08:24.816Z,64.20
2019-03-26T04:10:53.287Z,64.40
2019-03-26T04:13:21.705Z,65.40
2019-03-26T04:15:50.107Z,64.50
2019-03-26T04:18:18.653Z,64.70
2019-03-26T04:20:47.055Z,64.80
2019-03-26T04:23:15.465Z,65.00
2019-03-26T04:25:43.874Z,65.10
2019-03-26T04:28:12.323Z,65.20
2019-03-26T04:30:40.807Z,65.00
2019-03-26T04:33:09.716Z,64.90
2019-03-26T04:35:38.141Z,64.80
2019-03-26T04:38:06.957Z,64.70
2019-03-26T04:40:35.364Z,64.40
2019-03-26T04:43:03.800Z,64.00
2019-03-26T04:45:32.246Z,63.50
2019-03-26T04:48:00.661Z,63.30
2019-03-26T04:50:29.093Z,63.20
2019-03-26T04:52:57.570Z,63.30
2019-03-26T04:55:26.006Z,63.10
2019-03-26T04:57:54.430Z,63.10
2019-03-26T05:00:22.907Z,63.20
2019-03-26T05:02:51.333Z,63.00
2019-03-26T05:05:19.759Z,63.00
2019-03-26T05:07:48.245Z,63.10
2019-03-26T05:10:16.726Z,62.80
2019-03-26T05:12:45.158Z,62.70
2019-03-26T05:15:14.073Z,62.60
2019-03-26T05:17:42.487Z,62.50
2019-03-26T05:20:10.903Z,62.40
2019-03-26T05:22:39.331Z,62.40
2019-03-26T05:25:08.037Z,62.40
2019-03-26T05:27:45.459Z,62.30
2019-03-26T05:30:08.708Z,62.30
2019-03-26T05:32:37.218Z,62.20
2019-03-26T05:35:05.992Z,62.20
2019-03-26T05:37:34.442Z,62.30
2019-03-26T05:40:03.138Z,62.20
2019-03-26T05:42:31.570Z,62.10
2019-03-26T05:44:59.994Z,62.00
2019-03-26T05:47:28.421Z,62.00
2019-03-26T05:49:56.849Z,62.00
2019-03-26T05:52:25.434Z,61.90
2019-03-26T05:54:53.874Z,62.00
2019-03-26T05:57:22.289Z,62.00
2019-03-26T05:59:50.747Z,61.90
2019-03-26T06:02:19.176Z,61.90
2019-03-26T06:04:47.606Z,62.00
2019-03-26T06:07:16.070Z,62.00
2019-03-26T06:09:44.535Z,62.10
2019-03-26T06:12:13.025Z,62.10
2019-03-26T06:14:41.460Z,62.10
2019-03-26T06:17:09.859Z,62.20
2019-03-26T06:19:38.301Z,63.00
2019-03-26T06:22:06.733Z,62.40
2019-03-26T06:24:35.205Z,62.40
2019-03-26T06:27:03.630Z,62.50
2019-03-26T06:29:32.054Z,62.50
2019-03-26T06:32:00.718Z,62.70
2019-03-26T06:34:29.169Z,62.70
2019-03-26T06:36:57.657Z,62.90
2019-03-26T06:39:26.078Z,63.20
2019-03-26T06:41:54.559Z,63.30
2019-03-26T06:44:23.000Z,63.30
2019-03-26T06:46:51.418Z,63.30
2019-03-26T06:49:19.858Z,63.30
2019-03-26T06:51:48.563Z,63.30
2019-03-26T06:54:17.007Z,63.10
2019-03-26T06:56:45.477Z,62.90
2019-03-26T06:59:13.881Z,62.80
2019-03-26T07:01:42.521Z,62.50
2019-03-26T07:04:10.973Z,62.30
2019-03-26T07:06:39.394Z,62.00
2019-03-26T07:09:07.969Z,62.10
2019-03-26T07:11:36.660Z,62.00
2019-03-26T07:14:05.082Z,62.10
2019-03-26T07:16:33.514Z,62.00
2019-03-26T07:19:01.927Z,61.90
2019-03-26T07:21:30.350Z,61.90
2019-03-26T07:23:58.757Z,61.90
2019-03-26T07:26:27.238Z,61.90
2019-03-26T07:28:56.904Z,61.90
2019-03-26T07:31:25.574Z,62.00
2019-03-26T07:33:53.979Z,62.30
2019-03-26T07:36:22.415Z,63.20
2019-03-26T07:38:50.839Z,62.00
2019-03-26T07:41:19.277Z,62.70
2019-03-26T07:43:48.609Z,61.50
2019-03-26T07:46:17.074Z,61.30
2019-03-26T07:48:45.557Z,61.30
2019-03-26T07:51:13.963Z,61.10
2019-03-26T07:53:43.360Z,61.10
2019-03-26T07:56:12.641Z,60.80
2019-03-26T07:58:41.085Z,60.90
2019-03-26T08:01:09.516Z,60.90
2019-03-26T08:03:38.201Z,60.90
2019-03-26T08:06:06.605Z,60.80
2019-03-26T08:08:35.399Z,60.60
2019-03-26T08:11:03.919Z,60.40
2019-03-26T08:13:32.904Z,60.20
2019-03-26T08:16:01.375Z,59.80
2019-03-26T08:18:29.797Z,59.70
2019-03-26T08:20:58.223Z,59.50
2019-03-26T08:23:26.657Z,58.70
2019-03-26T08:25:55.122Z,58.50
2019-03-26T08:28:23.638Z,58.50
2019-03-26T08:30:52.051Z,58.60
2019-03-26T08:33:23.333Z,58.50
2019-03-26T08:35:50.679Z,58.70
2019-03-26T08:38:19.133Z,58.90
2019-03-26T08:40:47.568Z,58.60
2019-03-26T08:43:16.015Z,58.20
2019-03-26T08:45:44.435Z,57.90
2019-03-26T08:48:12.991Z,57.70
2019-03-26T08:50:41.421Z,57.10
2019-03-26T08:53:10.145Z,57.00
2019-03-26T08:55:38.578Z,57.20
2019-03-26T08:58:07.004Z,57.60
2019-03-26T09:00:35.427Z,57.00
2019-03-26T09:03:03.901Z,55.90
2019-03-26T09:05:32.303Z,54.40
2019-03-26T09:08:02.223Z,53.00
2019-03-26T09:10:30.636Z,50.50
2019-03-26T09:13:02.395Z,50.40
2019-03-26T09:15:30.868Z,49.00
2019-03-26T09:17:59.291Z,47.80
2019-03-26T09:20:27.727Z,47.20
2019-03-26T09:22:56.125Z,47.60
2019-03-26T09:25:24.631Z,48.50
2019-03-26T09:27:53.087Z,48.00
2019-03-26T09:30:21.510Z,46.70
2019-03-26T09:32:49.939Z,45.70
2019-03-26T09:35:18.401Z,45.00
2019-03-26T09:37:46.822Z,44.30
2019-03-26T09:40:15.389Z,44.30
2019-03-26T09:42:43.801Z,44.30
2019-03-26T09:45:12.660Z,44.70
2019-03-26T09:47:41.123Z,44.70
2019-03-26T09:50:13.214Z,44.90
2019-03-26T09:52:41.647Z,45.60
2019-03-26T09:55:10.637Z,45.90
2019-03-26T09:57:39.151Z,46.90
2019-03-26T10:00:12.325Z,46.50
2019-03-26T10:02:43.138Z,46.70
2019-03-26T10:05:11.173Z,47.10
2019-03-26T10:07:39.601Z,47.30
2019-03-26T10:10:08.651Z,47.90
2019-03-26T10:12:37.312Z,48.20
2019-03-26T10:15:07.250Z,47.70
2019-03-26T10:17:36.027Z,47.80
2019-03-26T10:20:06.767Z,47.70
2019-03-26T10:22:36.759Z,47.90
2019-03-26T10:25:10.474Z,48.00
2019-03-26T10:27:37.436Z,48.30
2019-03-26T10:30:08.301Z,48.40
2019-03-26T10:32:36.989Z,48.60
2019-03-26T10:35:06.727Z,48.60
2019-03-26T10:37:35.245Z,49.50
2019-03-26T10:40:05.698Z,49.10
2019-03-26T10:42:34.119Z,49.50
2019-03-26T10:45:02.629Z,49.80
2019-03-26T10:47:31.211Z,50.10
2019-03-26T10:49:59.652Z,50.40
2019-03-26T10:52:30.794Z,50.80
2019-03-26T10:54:58.234Z,51.10
2019-03-26T10:57:26.731Z,51.30
2019-03-26T10:59:55.203Z,51.70
2019-03-26T11:02:23.646Z,51.90
2019-03-26T11:04:52.120Z,52.20
2019-03-26T11:07:21.929Z,52.60
2019-03-26T11:09:50.408Z,53.00
2019-03-26T11:12:18.815Z,53.40
2019-03-26T11:14:47.342Z,53.70
2019-03-26T11:17:15.758Z,54.00
2019-03-26T11:19:46.389Z,54.10
2019-03-26T11:22:14.502Z,54.20
2019-03-26T11:24:43.000Z,54.40
2019-03-26T11:27:11.456Z,54.50
2019-03-26T11:29:40.022Z,54.50
2019-03-26T11:32:08.734Z,54.40
2019-03-26T11:34:37.276Z,54.40
2019-03-26T11:37:05.762Z,54.30
2019-03-26T11:39:34.176Z,54.00
2019-03-26T11:42:03.087Z,54.00
2019-03-26T11:44:31.600Z,53.40
2019-03-26T11:47:00.092Z,53.30
2019-03-26T11:49:28.500Z,53.30
2019-03-26T11:51:57.003Z,53.30
2019-03-26T11:54:25.575Z,53.20
2019-03-26T11:56:54.056Z,53.40
2019-03-26T11:59:22.500Z,53.30
2019-03-26T12:01:52.443Z,53.10
2019-03-26T12:04:21.276Z,53.00
2019-03-26T12:06:49.923Z,52.70
2019-03-26T12:09:18.378Z,52.30
2019-03-26T12:11:46.860Z,52.20
2019-03-26T12:14:15.284Z,52.00
2019-03-26T12:16:43.745Z,51.60
2019-03-26T12:19:12.169Z,51.30
2019-03-26T12:21:40.584Z,51.30
2019-03-26T12:24:09.024Z,51.40
2019-03-26T12:26:37.552Z,51.30
2019-03-26T12:29:06.962Z,51.60
2019-03-26T12:31:35.438Z,52.20
2019-03-26T12:34:04.008Z,52.30
2019-03-26T12:36:39.954Z,52.20
2019-03-26T12:39:02.637Z,50.40
2019-03-26T12:41:31.240Z,49.50
2019-03-26T12:43:59.677Z,49.20
2019-03-26T12:46:28.083Z,48.70
2019-03-26T12:48:56.583Z,48.20
2019-03-26T12:51:25.229Z,47.40
2019-03-26T12:53:53.935Z,46.90
2019-03-26T12:56:22.354Z,46.30
2019-03-26T12:58:51.712Z,45.90
2019-03-26T13:01:20.492Z,46.00
2019-03-26T13:03:48.922Z,46.10
2019-03-26T13:06:17.365Z,46.50
2019-03-26T13:08:46.143Z,47.00
2019-03-26T13:11:17.062Z,47.50
2019-03-26T13:13:45.623Z,48.10
2019-03-26T13:16:14.042Z,48.70
2019-03-26T13:18:42.498Z,49.30
2019-03-26T13:21:10.909Z,49.70
2019-03-26T13:23:40.065Z,50.10
2019-03-26T13:26:08.477Z,50.40
2019-03-26T13:28:37.230Z,50.80
2019-03-26T13:31:05.669Z,51.30
2019-03-26T13:33:34.100Z,51.70
2019-03-26T13:36:02.806Z,52.10
2019-03-26T13:38:31.277Z,52.50
2019-03-26T13:40:59.858Z,53.40
2019-03-26T13:43:28.295Z,52.80
2019-03-26T13:45:56.707Z,52.90
2019-03-26T13:48:25.118Z,52.90
2019-03-26T13:50:53.550Z,52.80
2019-03-26T13:53:22.254Z,52.90
2019-03-26T13:55:50.680Z,52.70
2019-03-26T13:58:19.095Z,52.60
2019-03-26T14:00:56.232Z,52.60
2019-03-26T14:03:24.702Z,52.50
2019-03-26T14:05:53.192Z,52.40
2019-03-26T14:08:21.616Z,52.30
2019-03-26T14:10:50.109Z,52.20
2019-03-26T14:13:18.532Z,52.20
2019-03-26T14:15:46.989Z,52.30
2019-03-26T14:18:15.432Z,52.30
2019-03-26T14:20:43.854Z,52.40
2019-03-26T14:23:12.265Z,52.50
2019-03-26T14:25:40.970Z,52.50
2019-03-26T14:28:09.397Z,52.80
2019-03-26T14:30:39.982Z,52.70
2019-03-26T14:33:09.425Z,52.60
2019-03-26T14:35:38.297Z,52.50
2019-03-26T14:38:06.838Z,52.40
2019-03-26T14:40:35.403Z,52.30
2019-03-26T14:43:04.189Z,52.40
2019-03-26T14:45:32.760Z,52.40
2019-03-26T14:48:01.215Z,52.60
2019-03-26T14:50:30.024Z,52.50
2019-03-26T14:52:58.407Z,52.60
2019-03-26T14:55:26.866Z,52.70
2019-03-26T14:57:55.374Z,52.90
2019-03-26T15:00:23.800Z,53.00
2019-03-26T15:02:52.234Z,53.20
2019-03-26T15:05:20.711Z,53.40
2019-03-26T15:07:49.139Z,53.50
2019-03-26T15:10:18.064Z,53.60
2019-03-26T15:12:46.774Z,53.70
2019-03-26T15:15:15.423Z,53.70
2019-03-26T15:17:43.852Z,53.70
2019-03-26T15:20:12.528Z,53.80
2019-03-26T15:22:48.275Z,54.10
2019-03-26T15:25:23.253Z,54.10
2019-03-26T15:27:51.765Z,54.20
2019-03-26T15:30:26.690Z,54.30
2019-03-26T15:32:55.260Z,54.30
2019-03-26T15:35:30.529Z,54.30
2019-03-26T15:38:00.800Z,54.40
2019-03-26T15:40:32.558Z,54.50
2019-03-26T15:43:01.043Z,54.50
2019-03-26T15:45:29.596Z,54.60
2019-03-26T15:47:58.113Z,54.70
2019-03-26T15:50:40.665Z,54.80
2019-03-26T15:53:09.311Z,54.70
2019-03-26T15:55:38.067Z,54.70
2019-03-26T15:58:06.514Z,54.70
2019-03-26T16:00:35.033Z,54.70
2019-03-26T16:03:06.529Z,54.80
2019-03-26T16:05:35.167Z,54.80
2019-03-26T16:08:03.673Z,54.80
2019-03-26T16:10:32.102Z,54.70
2019-03-26T16:13:00.643Z,54.70
2019-03-26T16:15:29.112Z,54.70
2019-03-26T16:17:57.676Z,54.60
2019-03-26T16:20:26.125Z,54.60
2019-03-26T16:22:54.548Z,54.60
2019-03-26T16:25:22.957Z,54.70
2019-03-26T16:27:51.397Z,54.70
2019-03-26T16:30:19.845Z,54.80
2019-03-26T16:32:48.251Z,54.90
2019-03-26T16:35:16.695Z,54.90
2019-03-26T16:37:45.141Z,55.00
2019-03-26T16:40:13.660Z,55.00
2019-03-26T16:42:42.088Z,55.10
2019-03-26T16:45:10.701Z,55.20
2019-03-26T16:47:39.112Z,55.20
2019-03-26T16:50:08.091Z,55.20
2019-03-26T16:52:43.153Z,55.30
2019-03-26T16:55:11.698Z,55.30
2019-03-26T16:57:41.917Z,55.30
2019-03-26T17:00:11.827Z,55.30
2019-03-26T17:02:40.252Z,55.40
2019-03-26T17:05:08.958Z,55.50
2019-03-26T17:07:37.420Z,55.50
2019-03-26T17:10:07.536Z,55.40
2019-03-26T17:12:35.941Z,55.50
2019-03-26T17:18:19.093Z,55.60
2019-03-26T17:20:47.556Z,55.60
2019-03-26T17:23:16.637Z,55.70
2019-03-26T17:25:45.169Z,55.80
2019-03-26T17:28:13.660Z,55.80
2019-03-26T17:30:42.103Z,55.90
2019-03-26T17:33:10.853Z,56.00
2019-03-26T17:35:40.221Z,56.10
2019-03-26T17:38:08.682Z,56.20
2019-03-26T17:40:37.271Z,56.30
2019-03-26T17:43:05.903Z,56.40
2019-03-26T17:45:34.333Z,56.40
2019-03-26T17:48:02.773Z,56.50
2019-03-26T17:50:31.207Z,56.50
2019-03-26T17:53:00.931Z,56.50
2019-03-26T17:55:29.399Z,56.60
2019-03-26T17:57:58.086Z,56.60
2019-03-26T18:00:37.792Z,56.70
2019-03-26T18:03:06.196Z,56.80
2019-03-26T18:05:34.707Z,56.80
2019-03-26T18:08:03.184Z,56.80
2019-03-26T18:10:31.657Z,56.90
2019-03-26T18:13:00.271Z,57.00
2019-03-26T18:15:33.454Z,57.10
2019-03-26T18:18:02.821Z,57.10
2019-03-26T18:20:32.853Z,57.20
2019-03-26T18:23:01.548Z,57.20
2019-03-26T18:25:29.961Z,57.20
2019-03-26T18:27:58.411Z,57.40
2019-03-26T18:30:26.915Z,57.50
2019-03-26T18:32:55.471Z,57.50
2019-03-26T18:35:23.978Z,57.60
2019-03-26T18:37:53.334Z,57.70
2019-03-26T18:40:21.758Z,57.80
2019-03-26T18:42:50.184Z,57.70
2019-03-26T18:45:18.697Z,57.80
2019-03-26T18:47:47.119Z,57.80
2019-03-26T18:50:16.202Z,57.80
2019-03-26T18:52:44.663Z,57.90
2019-03-26T18:55:15.092Z,57.90
2019-03-26T18:57:43.570Z,58.00
2019-03-26T19:00:15.328Z,57.90
2019-03-26T19:02:43.920Z,57.90
2019-03-26T19:05:14.029Z,58.00
2019-03-26T19:07:42.919Z,58.00
2019-03-26T19:10:23.573Z,58.00
2019-03-26T19:12:57.193Z,58.00
2019-03-26T19:15:22.269Z,58.00
2019-03-26T19:17:50.754Z,58.00
2019-03-26T19:20:19.203Z,58.10
2019-03-26T19:22:47.646Z,58.20
2019-03-26T19:25:16.163Z,58.10
2019-03-26T19:27:44.647Z,58.20
2019-03-26T19:30:13.610Z,58.80
2019-03-26T19:32:42.099Z,58.20
2019-03-26T19:35:10.596Z,58.20
2019-03-26T19:37:39.114Z,58.30
2019-03-26T19:40:08.143Z,58.30
2019-03-26T19:42:36.569Z,58.40
2019-03-26T19:45:05.525Z,58.40
2019-03-26T19:47:33.954Z,58.40
2019-03-26T19:50:02.945Z,59.10
2019-03-26T19:52:33.241Z,58.50
2019-03-26T19:55:01.680Z,58.50
2019-03-26T19:57:30.110Z,58.70
2019-03-26T19:59:58.601Z,58.60
2019-03-26T20:02:27.135Z,58.80
2019-03-26T20:04:55.645Z,58.80
2019-03-26T20:07:24.253Z,58.90
2019-03-26T20:09:53.080Z,59.00
2019-03-26T20:12:22.236Z,59.00
2019-03-26T20:14:50.725Z,59.00
2019-03-26T20:17:19.966Z,59.00
2019-03-26T20:19:48.698Z,59.10
2019-03-26T20:22:17.422Z,59.10
2019-03-26T20:24:46.151Z,59.20
2019-03-26T20:27:14.725Z,59.30
2019-03-26T20:29:44.308Z,59.30
2019-03-26T20:32:12.816Z,59.40
2019-03-26T20:34:44.505Z,59.50
2019-03-26T20:37:13.101Z,60.20
2019-03-26T20:39:41.615Z,59.60
2019-03-26T20:42:10.054Z,59.50
2019-03-26T20:44:43.910Z,59.60
2019-03-26T20:47:13.316Z,59.70
2019-03-26T20:49:50.484Z,59.80
2019-03-26T20:52:19.230Z,59.80
2019-03-26T20:54:47.675Z,59.90
2019-03-26T20:57:16.294Z,59.90
2019-03-26T20:59:44.776Z,60.00
2019-03-26T21:02:13.421Z,60.10
2019-03-26T21:04:41.993Z,60.20
2019-03-26T21:07:10.541Z,60.20
2019-03-26T21:09:39.030Z,60.30
2019-03-26T21:12:07.511Z,60.30
2019-03-26T21:14:35.997Z,60.30
2019-03-26T21:17:04.562Z,60.30
2019-03-26T21:19:33.175Z,60.30
2019-03-26T21:22:01.662Z,60.40
2019-03-26T21:24:30.110Z,60.40
2019-03-26T21:26:58.602Z,60.50
2019-03-26T21:29:27.075Z,60.60
2019-03-26T21:31:55.805Z,60.50
2019-03-26T21:34:30.466Z,60.50
2019-03-26T21:36:54.406Z,60.70
2019-03-26T21:39:23.202Z,60.70
2019-03-26T21:41:51.772Z,60.70
2019-03-26T21:44:21.605Z,60.80
2019-03-26T21:46:50.888Z,60.60
2019-03-26T21:49:19.342Z,60.70
2019-03-26T21:51:47.935Z,60.70
2019-03-26T21:54:16.945Z,60.70
2019-03-26T21:56:45.497Z,60.80
2019-03-26T21:59:14.426Z,60.90
2019-03-26T22:01:43.315Z,61.20
2019-03-26T22:04:12.931Z,61.40
2019-03-26T22:06:41.711Z,61.30
2019-03-26T22:09:10.581Z,61.20
2019-03-26T22:11:49.288Z,61.10
2019-03-26T22:14:17.953Z,60.90
2019-03-26T22:16:39.482Z,60.80
2019-03-26T22:19:10.359Z,60.80
2019-03-26T22:21:38.956Z,60.80
2019-03-26T22:24:07.541Z,60.80
2019-03-26T22:26:35.966Z,60.80
2019-03-26T22:29:04.377Z,60.90
2019-03-26T22:31:32.804Z,60.90
2019-03-26T22:34:01.241Z,60.90
2019-03-26T22:36:29.710Z,61.10
2019-03-26T22:38:58.142Z,60.90
2019-03-26T22:41:26.747Z,61.00
2019-03-26T22:43:55.356Z,61.10
2019-03-26T22:46:23.949Z,61.20
2019-03-26T22:48:52.469Z,61.20
2019-03-26T22:51:20.993Z,61.20
2019-03-26T22:53:49.402Z,61.20
2019-03-26T22:56:18.231Z,61.20
2019-03-26T22:58:46.666Z,61.30
2019-03-26T23:01:15.246Z,61.20
2019-03-26T23:03:43.695Z,61.30
2019-03-26T23:06:12.204Z,61.40
2019-03-26T23:08:41.235Z,61.50
2019-03-26T23:11:09.646Z,61.60
2019-03-26T23:13:38.171Z,61.60
2019-03-26T23:16:06.702Z,61.80
2019-03-26T23:18:35.171Z,61.80
2019-03-26T23:21:04.212Z,62.00
2019-03-26T23:23:32.688Z,62.10
2019-03-26T23:26:01.118Z,62.10
2019-03-26T23:28:29.506Z,62.20
2019-03-26T23:30:57.942Z,62.20
2019-03-26T23:33:26.431Z,62.40
2019-03-26T23:35:54.982Z,62.50
2019-03-26T23:38:23.430Z,62.60
2019-03-26T23:40:51.841Z,62.70
2019-03-26T23:43:20.280Z,62.60
2019-03-26T23:45:48.706Z,62.60
2019-03-26T23:48:17.152Z,62.60
2019-03-26T23:50:45.565Z,62.80
2019-03-26T23:53:14.337Z,62.70
2019-03-26T23:55:42.802Z,62.70
2019-03-26T23:58:30.544Z,62.80
